Terminal Aerodrome Forecast
Issued by NWS

Home | Current Version | Previous Version | Text Only | Print | Product List | Glossary On
Versions: 1 2 3 4 5 6 7 8 9 10 11 12 13 14 15 16
000
FTUS43 KDTX 302320
TAFMBS
TAF
KMBS 302320Z 3100/3124 23007KT P6SM SCT035
     FM310800 VRB03KT 3SM BR SKC
     FM311000 00000KT 1SM BR VV007
     FM311400 VRB03KT 3SM BR SCT015
     FM311600 25005KT P6SM FEW045=

USA.gov is the U.S. government's official web portal to all federal, state and local government web resources and services.